sensor_id;sensor_type;location;lat;lon;timestamp;P1;durP1;ratioP1;P2;durP2;ratioP2
8151;SDS011;4117;53.622;9.958;2024-03-08T00:01:01;16.67;;;12.07;;
8151;SDS011;4117;53.622;9.958;2024-03-08T00:03:28;16.50;;;11.63;;
8151;SDS011;4117;53.622;9.958;2024-03-08T00:05:56;15.73;;;11.27;;
8151;SDS011;4117;53.622;9.958;2024-03-08T00:08:23;17.60;;;12.40;;
8151;SDS011;4117;53.622;9.958;2024-03-08T00:10:50;15.57;;;11.33;;
8151;SDS011;4117;53.622;9.958;2024-03-08T00:13:17;16.90;;;11.93;;
8151;SDS011;4117;53.622;9.958;2024-03-08T00:15:46;17.53;;;12.27;;
8151;SDS011;4117;53.622;9.958;2024-03-08T00:18:13;16.93;;;12.40;;
8151;SDS011;4117;53.622;9.958;2024-03-08T00:20:40;17.77;;;11.80;;
8151;SDS011;4117;53.622;9.958;2024-03-08T00:23:07;20.07;;;12.83;;
8151;SDS011;4117;53.622;9.958;2024-03-08T00:25:36;16.03;;;11.50;;
8151;SDS011;4117;53.622;9.958;2024-03-08T00:28:04;15.97;;;11.20;;
8151;SDS011;4117;53.622;9.958;2024-03-08T00:30:31;18.37;;;11.80;;
8151;SDS011;4117;53.622;9.958;2024-03-08T00:33:00;15.73;;;10.77;;
8151;SDS011;4117;53.622;9.958;2024-03-08T00:35:27;16.00;;;11.87;;
8151;SDS011;4117;53.622;9.958;2024-03-08T00:37:53;14.90;;;11.50;;
8151;SDS011;4117;53.622;9.958;2024-03-08T00:40:21;16.47;;;12.37;;
8151;SDS011;4117;53.622;9.958;2024-03-08T00:42:48;16.47;;;11.23;;
8151;SDS011;4117;53.622;9.958;2024-03-08T00:45:15;16.50;;;11.23;;
8151;SDS011;4117;53.622;9.958;2024-03-08T00:47:43;18.90;;;11.20;;
8151;SDS011;4117;53.622;9.958;2024-03-08T00:50:12;15.50;;;11.07;;
8151;SDS011;4117;53.622;9.958;2024-03-08T00:52:39;14.70;;;11.20;;
8151;SDS011;4117;53.622;9.958;2024-03-08T00:55:06;16.60;;;12.27;;
8151;SDS011;4117;53.622;9.958;2024-03-08T00:57:35;14.90;;;11.37;;
8151;SDS011;4117;53.622;9.958;2024-03-08T01:00:04;16.17;;;11.70;;
8151;SDS011;4117;53.622;9.958;2024-03-08T01:02:34;17.07;;;11.43;;
8151;SDS011;4117;53.622;9.958;2024-03-08T01:05:01;16.80;;;11.20;;
8151;SDS011;4117;53.622;9.958;2024-03-08T01:07:30;16.20;;;11.23;;
8151;SDS011;4117;53.622;9.958;2024-03-08T01:09:57;15.30;;;12.03;;
8151;SDS011;4117;53.622;9.958;2024-03-08T01:12:25;14.50;;;11.13;;
8151;SDS011;4117;53.622;9.958;2024-03-08T01:14:52;18.30;;;10.97;;
8151;SDS011;4117;53.622;9.958;2024-03-08T01:17:19;18.93;;;12.07;;
8151;SDS011;4117;53.622;9.958;2024-03-08T01:19:46;17.27;;;11.60;;
8151;SDS011;4117;53.622;9.958;2024-03-08T01:22:13;14.17;;;11.67;;
8151;SDS011;4117;53.622;9.958;2024-03-08T01:24:42;15.37;;;11.63;;
8151;SDS011;4117;53.622;9.958;2024-03-08T01:27:09;15.17;;;11.27;;
8151;SDS011;4117;53.622;9.958;2024-03-08T01:29:37;14.37;;;11.10;;
8151;SDS011;4117;53.622;9.958;2024-03-08T01:32:04;16.83;;;11.70;;
8151;SDS011;4117;53.622;9.958;2024-03-08T01:34:31;15.30;;;11.60;;
8151;SDS011;4117;53.622;9.958;2024-03-08T01:36:58;15.47;;;11.00;;
8151;SDS011;4117;53.622;9.958;2024-03-08T01:39:26;15.60;;;11.63;;
8151;SDS011;4117;53.622;9.958;2024-03-08T01:41:54;17.07;;;11.20;;
8151;SDS011;4117;53.622;9.958;2024-03-08T01:44:21;15.90;;;11.23;;
8151;SDS011;4117;53.622;9.958;2024-03-08T01:46:49;15.23;;;11.60;;
8151;SDS011;4117;53.622;9.958;2024-03-08T01:49:17;17.43;;;12.00;;
8151;SDS011;4117;53.622;9.958;2024-03-08T01:51:46;16.13;;;11.53;;
8151;SDS011;4117;53.622;9.958;2024-03-08T01:54:14;15.60;;;10.93;;
8151;SDS011;4117;53.622;9.958;2024-03-08T01:56:45;15.17;;;11.03;;
8151;SDS011;4117;53.622;9.958;2024-03-08T01:59:14;15.50;;;11.80;;
8151;SDS011;4117;53.622;9.958;2024-03-08T02:01:42;14.57;;;11.70;;
8151;SDS011;4117;53.622;9.958;2024-03-08T02:04:09;17.07;;;12.20;;
8151;SDS011;4117;53.622;9.958;2024-03-08T02:06:36;15.70;;;11.80;;
8151;SDS011;4117;53.622;9.958;2024-03-08T02:09:03;18.53;;;12.07;;
8151;SDS011;4117;53.622;9.958;2024-03-08T02:11:32;15.40;;;10.93;;
8151;SDS011;4117;53.622;9.958;2024-03-08T02:14:01;15.87;;;11.70;;
8151;SDS011;4117;53.622;9.958;2024-03-08T02:16:29;17.90;;;12.37;;
8151;SDS011;4117;53.622;9.958;2024-03-08T02:18:56;15.90;;;12.17;;
8151;SDS011;4117;53.622;9.958;2024-03-08T02:21:24;14.37;;;11.23;;
8151;SDS011;4117;53.622;9.958;2024-03-08T02:23:52;18.13;;;12.43;;
8151;SDS011;4117;53.622;9.958;2024-03-08T02:26:20;15.23;;;11.60;;
8151;SDS011;4117;53.622;9.958;2024-03-08T02:28:47;15.30;;;12.07;;
8151;SDS011;4117;53.622;9.958;2024-03-08T02:31:15;17.10;;;11.83;;
8151;SDS011;4117;53.622;9.958;2024-03-08T02:33:42;15.30;;;11.80;;
8151;SDS011;4117;53.622;9.958;2024-03-08T02:36:08;16.27;;;12.50;;
8151;SDS011;4117;53.622;9.958;2024-03-08T02:38:38;14.67;;;11.60;;
8151;SDS011;4117;53.622;9.958;2024-03-08T02:41:06;15.97;;;12.23;;
8151;SDS011;4117;53.622;9.958;2024-03-08T02:43:33;17.50;;;11.77;;
8151;SDS011;4117;53.622;9.958;2024-03-08T02:46:00;17.27;;;11.97;;
8151;SDS011;4117;53.622;9.958;2024-03-08T02:48:27;15.87;;;11.70;;
8151;SDS011;4117;53.622;9.958;2024-03-08T02:50:54;16.53;;;12.33;;
8151;SDS011;4117;53.622;9.958;2024-03-08T02:53:21;17.97;;;11.93;;
8151;SDS011;4117;53.622;9.958;2024-03-08T02:55:51;15.97;;;11.77;;
8151;SDS011;4117;53.622;9.958;2024-03-08T02:58:17;17.07;;;12.00;;
8151;SDS011;4117;53.622;9.958;2024-03-08T03:00:44;15.53;;;11.87;;
8151;SDS011;4117;53.622;9.958;2024-03-08T03:03:11;16.70;;;11.83;;
8151;SDS011;4117;53.622;9.958;2024-03-08T03:05:41;16.30;;;12.50;;
8151;SDS011;4117;53.622;9.958;2024-03-08T03:08:09;16.07;;;11.33;;
8151;SDS011;4117;53.622;9.958;2024-03-08T03:10:37;17.00;;;11.90;;
8151;SDS011;4117;53.622;9.958;2024-03-08T03:13:05;17.07;;;11.60;;
8151;SDS011;4117;53.622;9.958;2024-03-08T03:15:33;17.67;;;12.40;;
8151;SDS011;4117;53.622;9.958;2024-03-08T03:18:01;16.43;;;12.30;;
8151;SDS011;4117;53.622;9.958;2024-03-08T03:20:29;15.83;;;11.93;;
8151;SDS011;4117;53.622;9.958;2024-03-08T03:22:58;14.47;;;11.10;;
8151;SDS011;4117;53.622;9.958;2024-03-08T03:25:28;17.67;;;12.50;;
8151;SDS011;4117;53.622;9.958;2024-03-08T03:27:59;17.57;;;12.30;;
8151;SDS011;4117;53.622;9.958;2024-03-08T03:30:28;17.03;;;11.90;;
8151;SDS011;4117;53.622;9.958;2024-03-08T03:32:58;14.93;;;11.90;;
8151;SDS011;4117;53.622;9.958;2024-03-08T03:35:25;17.23;;;13.00;;
8151;SDS011;4117;53.622;9.958;2024-03-08T03:37:53;16.40;;;12.33;;
8151;SDS011;4117;53.622;9.958;2024-03-08T03:40:30;17.60;;;12.33;;
8151;SDS011;4117;53.622;9.958;2024-03-08T03:42:58;18.07;;;12.30;;
8151;SDS011;4117;53.622;9.958;2024-03-08T03:45:25;17.57;;;12.60;;
8151;SDS011;4117;53.622;9.958;2024-03-08T03:47:54;17.17;;;12.00;;
8151;SDS011;4117;53.622;9.958;2024-03-08T03:50:21;17.43;;;12.53;;
8151;SDS011;4117;53.622;9.958;2024-03-08T03:52:48;17.90;;;12.73;;
8151;SDS011;4117;53.622;9.958;2024-03-08T03:55:15;16.27;;;12.27;;
8151;SDS011;4117;53.622;9.958;2024-03-08T03:57:43;17.73;;;12.30;;
8151;SDS011;4117;53.622;9.958;2024-03-08T04:00:11;21.13;;;13.10;;
8151;SDS011;4117;53.622;9.958;2024-03-08T04:02:39;16.20;;;12.33;;
8151;SDS011;4117;53.622;9.958;2024-03-08T04:05:08;17.10;;;11.80;;
8151;SDS011;4117;53.622;9.958;2024-03-08T04:07:36;17.40;;;12.80;;
8151;SDS011;4117;53.622;9.958;2024-03-08T04:10:04;17.50;;;12.13;;
8151;SDS011;4117;53.622;9.958;2024-03-08T04:12:31;19.93;;;12.50;;
8151;SDS011;4117;53.622;9.958;2024-03-08T04:14:58;20.67;;;13.50;;
8151;SDS011;4117;53.622;9.958;2024-03-08T04:17:25;18.30;;;13.43;;
8151;SDS011;4117;53.622;9.958;2024-03-08T04:19:52;16.13;;;12.23;;
8151;SDS011;4117;53.622;9.958;2024-03-08T04:22:21;19.20;;;13.53;;
8151;SDS011;4117;53.622;9.958;2024-03-08T04:24:48;17.53;;;12.60;;
8151;SDS011;4117;53.622;9.958;2024-03-08T04:27:16;19.40;;;13.30;;
8151;SDS011;4117;53.622;9.958;2024-03-08T04:29:43;19.77;;;13.33;;
8151;SDS011;4117;53.622;9.958;2024-03-08T04:32:09;19.97;;;13.23;;
8151;SDS011;4117;53.622;9.958;2024-03-08T04:34:38;21.00;;;13.23;;
8151;SDS011;4117;53.622;9.958;2024-03-08T04:37:05;18.30;;;12.90;;
8151;SDS011;4117;53.622;9.958;2024-03-08T04:39:37;19.27;;;12.80;;
8151;SDS011;4117;53.622;9.958;2024-03-08T04:42:04;21.67;;;14.27;;
8151;SDS011;4117;53.622;9.958;2024-03-08T04:44:35;23.30;;;14.87;;
8151;SDS011;4117;53.622;9.958;2024-03-08T04:47:02;20.10;;;13.00;;
8151;SDS011;4117;53.622;9.958;2024-03-08T04:49:30;21.33;;;13.70;;
8151;SDS011;4117;53.622;9.958;2024-03-08T04:52:00;20.77;;;14.07;;
8151;SDS011;4117;53.622;9.958;2024-03-08T04:54:28;19.13;;;13.50;;
8151;SDS011;4117;53.622;9.958;2024-03-08T04:56:56;20.77;;;14.50;;
8151;SDS011;4117;53.622;9.958;2024-03-08T04:59:25;21.00;;;14.33;;
8151;SDS011;4117;53.622;9.958;2024-03-08T05:01:51;18.13;;;13.37;;
8151;SDS011;4117;53.622;9.958;2024-03-08T05:04:18;19.27;;;13.20;;
8151;SDS011;4117;53.622;9.958;2024-03-08T05:06:45;17.70;;;13.00;;
8151;SDS011;4117;53.622;9.958;2024-03-08T05:09:13;17.90;;;13.33;;
8151;SDS011;4117;53.622;9.958;2024-03-08T05:11:41;20.87;;;12.63;;
8151;SDS011;4117;53.622;9.958;2024-03-08T05:14:10;20.37;;;13.57;;
8151;SDS011;4117;53.622;9.958;2024-03-08T05:16:40;19.17;;;13.07;;
8151;SDS011;4117;53.622;9.958;2024-03-08T05:19:07;18.43;;;12.43;;
8151;SDS011;4117;53.622;9.958;2024-03-08T05:21:34;18.43;;;12.47;;
8151;SDS011;4117;53.622;9.958;2024-03-08T05:24:01;18.53;;;12.93;;
8151;SDS011;4117;53.622;9.958;2024-03-08T05:26:29;17.47;;;12.63;;
8151;SDS011;4117;53.622;9.958;2024-03-08T05:28:58;22.23;;;13.53;;
8151;SDS011;4117;53.622;9.958;2024-03-08T05:31:26;17.07;;;12.70;;
8151;SDS011;4117;53.622;9.958;2024-03-08T05:33:53;17.70;;;12.57;;
8151;SDS011;4117;53.622;9.958;2024-03-08T05:36:21;17.97;;;13.03;;
8151;SDS011;4117;53.622;9.958;2024-03-08T05:38:48;20.87;;;14.10;;
8151;SDS011;4117;53.622;9.958;2024-03-08T05:41:15;21.07;;;13.33;;
8151;SDS011;4117;53.622;9.958;2024-03-08T05:43:43;20.33;;;13.47;;
8151;SDS011;4117;53.622;9.958;2024-03-08T05:46:10;19.27;;;13.60;;
8151;SDS011;4117;53.622;9.958;2024-03-08T05:48:39;19.70;;;12.63;;
8151;SDS011;4117;53.622;9.958;2024-03-08T05:51:06;19.67;;;13.10;;
8151;SDS011;4117;53.622;9.958;2024-03-08T05:53:33;21.13;;;13.60;;
8151;SDS011;4117;53.622;9.958;2024-03-08T05:56:00;18.00;;;12.93;;
8151;SDS011;4117;53.622;9.958;2024-03-08T05:58:28;20.27;;;14.10;;
8151;SDS011;4117;53.622;9.958;2024-03-08T06:00:56;19.13;;;13.43;;
8151;SDS011;4117;53.622;9.958;2024-03-08T06:03:23;19.37;;;13.30;;
8151;SDS011;4117;53.622;9.958;2024-03-08T06:05:51;20.57;;;13.67;;
8151;SDS011;4117;53.622;9.958;2024-03-08T06:08:18;21.83;;;14.53;;
8151;SDS011;4117;53.622;9.958;2024-03-08T06:10:46;18.10;;;13.00;;
8151;SDS011;4117;53.622;9.958;2024-03-08T06:13:17;18.93;;;13.80;;
8151;SDS011;4117;53.622;9.958;2024-03-08T06:15:44;22.43;;;13.87;;
8151;SDS011;4117;53.622;9.958;2024-03-08T06:18:11;22.60;;;15.13;;
8151;SDS011;4117;53.622;9.958;2024-03-08T06:20:40;20.87;;;13.87;;
8151;SDS011;4117;53.622;9.958;2024-03-08T06:23:10;19.53;;;14.07;;
8151;SDS011;4117;53.622;9.958;2024-03-08T06:25:37;22.67;;;15.60;;
8151;SDS011;4117;53.622;9.958;2024-03-08T06:28:04;21.20;;;14.63;;
8151;SDS011;4117;53.622;9.958;2024-03-08T06:30:31;21.00;;;14.87;;
8151;SDS011;4117;53.622;9.958;2024-03-08T06:32:59;21.10;;;14.53;;
8151;SDS011;4117;53.622;9.958;2024-03-08T06:35:26;22.47;;;14.23;;
8151;SDS011;4117;53.622;9.958;2024-03-08T06:37:53;24.53;;;15.13;;
8151;SDS011;4117;53.622;9.958;2024-03-08T06:40:22;22.33;;;14.67;;
8151;SDS011;4117;53.622;9.958;2024-03-08T06:42:48;21.30;;;14.27;;
8151;SDS011;4117;53.622;9.958;2024-03-08T06:45:17;22.30;;;14.87;;
8151;SDS011;4117;53.622;9.958;2024-03-08T06:47:46;21.97;;;14.73;;
8151;SDS011;4117;53.622;9.958;2024-03-08T06:50:13;22.67;;;15.93;;
8151;SDS011;4117;53.622;9.958;2024-03-08T06:52:40;27.90;;;16.53;;
8151;SDS011;4117;53.622;9.958;2024-03-08T06:55:07;26.20;;;17.00;;
8151;SDS011;4117;53.622;9.958;2024-03-08T06:57:38;23.37;;;16.33;;
8151;SDS011;4117;53.622;9.958;2024-03-08T07:00:06;28.03;;;18.73;;
8151;SDS011;4117;53.622;9.958;2024-03-08T07:02:34;26.17;;;17.03;;
8151;SDS011;4117;53.622;9.958;2024-03-08T07:05:02;26.70;;;16.97;;
8151;SDS011;4117;53.622;9.958;2024-03-08T07:07:29;24.43;;;16.97;;
8151;SDS011;4117;53.622;9.958;2024-03-08T07:09:57;26.80;;;17.40;;
8151;SDS011;4117;53.622;9.958;2024-03-08T07:12:24;23.87;;;16.97;;
8151;SDS011;4117;53.622;9.958;2024-03-08T07:14:52;23.73;;;16.37;;
8151;SDS011;4117;53.622;9.958;2024-03-08T07:17:19;27.63;;;17.90;;
8151;SDS011;4117;53.622;9.958;2024-03-08T07:19:47;26.77;;;16.70;;
8151;SDS011;4117;53.622;9.958;2024-03-08T07:22:14;24.70;;;16.40;;
8151;SDS011;4117;53.622;9.958;2024-03-08T07:24:42;27.23;;;18.00;;
8151;SDS011;4117;53.622;9.958;2024-03-08T07:27:29;27.63;;;17.93;;
8151;SDS011;4117;53.622;9.958;2024-03-08T07:29:57;25.93;;;17.30;;
8151;SDS011;4117;53.622;9.958;2024-03-08T07:32:25;26.23;;;18.10;;
8151;SDS011;4117;53.622;9.958;2024-03-08T07:34:54;28.23;;;18.90;;
8151;SDS011;4117;53.622;9.958;2024-03-08T07:37:22;27.17;;;18.33;;
8151;SDS011;4117;53.622;9.958;2024-03-08T07:39:49;27.43;;;17.33;;
8151;SDS011;4117;53.622;9.958;2024-03-08T07:42:16;25.80;;;17.27;;
8151;SDS011;4117;53.622;9.958;2024-03-08T07:44:43;27.43;;;18.67;;
8151;SDS011;4117;53.622;9.958;2024-03-08T07:47:12;26.13;;;17.70;;
8151;SDS011;4117;53.622;9.958;2024-03-08T07:49:39;25.53;;;17.73;;
8151;SDS011;4117;53.622;9.958;2024-03-08T07:52:06;28.10;;;18.60;;
8151;SDS011;4117;53.622;9.958;2024-03-08T07:54:35;26.80;;;19.07;;
8151;SDS011;4117;53.622;9.958;2024-03-08T07:57:02;29.40;;;19.73;;
8151;SDS011;4117;53.622;9.958;2024-03-08T07:59:29;28.27;;;19.20;;
8151;SDS011;4117;53.622;9.958;2024-03-08T08:01:58;28.67;;;18.83;;
8151;SDS011;4117;53.622;9.958;2024-03-08T08:04:27;28.20;;;18.87;;
8151;SDS011;4117;53.622;9.958;2024-03-08T08:06:54;25.77;;;17.87;;
8151;SDS011;4117;53.622;9.958;2024-03-08T08:09:22;23.97;;;17.63;;
8151;SDS011;4117;53.622;9.958;2024-03-08T08:11:59;26.60;;;18.07;;
8151;SDS011;4117;53.622;9.958;2024-03-08T08:14:27;25.73;;;17.20;;
8151;SDS011;4117;53.622;9.958;2024-03-08T08:16:54;25.53;;;17.53;;
8151;SDS011;4117;53.622;9.958;2024-03-08T08:19:31;24.63;;;17.50;;
8151;SDS011;4117;53.622;9.958;2024-03-08T08:21:58;25.90;;;17.87;;
8151;SDS011;4117;53.622;9.958;2024-03-08T08:24:25;26.13;;;17.67;;
8151;SDS011;4117;53.622;9.958;2024-03-08T08:26:53;26.53;;;16.03;;
8151;SDS011;4117;53.622;9.958;2024-03-08T08:29:20;24.57;;;16.97;;
8151;SDS011;4117;53.622;9.958;2024-03-08T08:31:48;25.90;;;17.40;;
8151;SDS011;4117;53.622;9.958;2024-03-08T08:34:15;24.80;;;16.93;;
8151;SDS011;4117;53.622;9.958;2024-03-08T08:36:45;26.33;;;17.63;;
8151;SDS011;4117;53.622;9.958;2024-03-08T08:39:15;24.77;;;17.97;;
8151;SDS011;4117;53.622;9.958;2024-03-08T08:41:42;23.97;;;16.90;;
8151;SDS011;4117;53.622;9.958;2024-03-08T08:44:09;27.07;;;16.97;;
8151;SDS011;4117;53.622;9.958;2024-03-08T08:46:37;25.83;;;16.00;;
8151;SDS011;4117;53.622;9.958;2024-03-08T08:49:04;25.33;;;16.50;;
8151;SDS011;4117;53.622;9.958;2024-03-08T08:51:33;26.60;;;16.90;;
8151;SDS011;4117;53.622;9.958;2024-03-08T08:54:02;24.43;;;17.73;;
8151;SDS011;4117;53.622;9.958;2024-03-08T08:56:31;25.40;;;16.27;;
8151;SDS011;4117;53.622;9.958;2024-03-08T08:58:58;30.33;;;16.70;;
8151;SDS011;4117;53.622;9.958;2024-03-08T09:01:25;25.17;;;17.27;;
8151;SDS011;4117;53.622;9.958;2024-03-08T09:03:54;25.27;;;17.30;;
8151;SDS011;4117;53.622;9.958;2024-03-08T09:06:21;23.10;;;16.23;;
8151;SDS011;4117;53.622;9.958;2024-03-08T09:08:47;26.90;;;17.27;;
8151;SDS011;4117;53.622;9.958;2024-03-08T09:11:16;24.60;;;16.90;;
8151;SDS011;4117;53.622;9.958;2024-03-08T09:13:44;23.13;;;16.13;;
8151;SDS011;4117;53.622;9.958;2024-03-08T09:16:12;24.63;;;17.23;;
8151;SDS011;4117;53.622;9.958;2024-03-08T09:18:39;25.17;;;17.07;;
8151;SDS011;4117;53.622;9.958;2024-03-08T09:21:06;23.37;;;16.40;;
8151;SDS011;4117;53.622;9.958;2024-03-08T09:23:35;23.43;;;16.60;;
8151;SDS011;4117;53.622;9.958;2024-03-08T09:26:02;23.33;;;16.00;;
8151;SDS011;4117;53.622;9.958;2024-03-08T09:28:30;24.93;;;15.77;;
8151;SDS011;4117;53.622;9.958;2024-03-08T09:30:57;25.53;;;16.23;;
8151;SDS011;4117;53.622;9.958;2024-03-08T09:33:26;24.30;;;16.33;;
8151;SDS011;4117;53.622;9.958;2024-03-08T09:35:53;24.63;;;16.70;;
8151;SDS011;4117;53.622;9.958;2024-03-08T09:38:22;22.63;;;16.40;;
8151;SDS011;4117;53.622;9.958;2024-03-08T09:40:50;25.03;;;16.67;;
8151;SDS011;4117;53.622;9.958;2024-03-08T09:43:18;23.93;;;15.67;;
8151;SDS011;4117;53.622;9.958;2024-03-08T09:45:46;21.93;;;16.60;;
8151;SDS011;4117;53.622;9.958;2024-03-08T09:48:16;23.47;;;15.87;;
8151;SDS011;4117;53.622;9.958;2024-03-08T09:50:45;21.63;;;16.13;;
8151;SDS011;4117;53.622;9.958;2024-03-08T09:53:13;25.57;;;16.00;;
8151;SDS011;4117;53.622;9.958;2024-03-08T09:55:40;20.53;;;14.33;;
8151;SDS011;4117;53.622;9.958;2024-03-08T09:58:11;22.83;;;15.90;;
8151;SDS011;4117;53.622;9.958;2024-03-08T10:01:17;21.53;;;15.30;;
8151;SDS011;4117;53.622;9.958;2024-03-08T10:03:47;24.00;;;15.43;;
8151;SDS011;4117;53.622;9.958;2024-03-08T10:06:15;24.93;;;15.07;;
8151;SDS011;4117;53.622;9.958;2024-03-08T10:08:42;23.00;;;15.67;;
8151;SDS011;4117;53.622;9.958;2024-03-08T10:11:10;24.70;;;16.07;;
8151;SDS011;4117;53.622;9.958;2024-03-08T10:13:37;21.77;;;14.73;;
8151;SDS011;4117;53.622;9.958;2024-03-08T10:16:05;21.67;;;15.63;;
8151;SDS011;4117;53.622;9.958;2024-03-08T10:18:34;21.30;;;14.63;;
8151;SDS011;4117;53.622;9.958;2024-03-08T10:21:02;18.30;;;12.47;;
8151;SDS011;4117;53.622;9.958;2024-03-08T10:23:30;20.20;;;14.63;;
8151;SDS011;4117;53.622;9.958;2024-03-08T10:26:01;52.10;;;15.00;;
8151;SDS011;4117;53.622;9.958;2024-03-08T10:28:36;19.33;;;14.57;;
8151;SDS011;4117;53.622;9.958;2024-03-08T10:31:03;22.90;;;13.10;;
8151;SDS011;4117;53.622;9.958;2024-03-08T10:33:30;22.13;;;14.87;;
8151;SDS011;4117;53.622;9.958;2024-03-08T10:35:59;19.40;;;14.40;;
8151;SDS011;4117;53.622;9.958;2024-03-08T10:38:28;20.07;;;14.37;;
8151;SDS011;4117;53.622;9.958;2024-03-08T10:40:59;19.77;;;13.07;;
8151;SDS011;4117;53.622;9.958;2024-03-08T10:43:27;21.80;;;15.67;;
8151;SDS011;4117;53.622;9.958;2024-03-08T10:46:05;22.97;;;15.57;;
8151;SDS011;4117;53.622;9.958;2024-03-08T10:48:43;21.20;;;13.73;;
8151;SDS011;4117;53.622;9.958;2024-03-08T10:51:12;21.37;;;13.47;;
8151;SDS011;4117;53.622;9.958;2024-03-08T10:53:41;20.77;;;14.17;;
8151;SDS011;4117;53.622;9.958;2024-03-08T10:56:10;22.93;;;15.37;;
8151;SDS011;4117;53.622;9.958;2024-03-08T10:58:39;22.20;;;14.93;;
8151;SDS011;4117;53.622;9.958;2024-03-08T11:01:09;19.33;;;13.57;;
8151;SDS011;4117;53.622;9.958;2024-03-08T11:03:46;16.90;;;12.57;;
8151;SDS011;4117;53.622;9.958;2024-03-08T11:06:22;19.33;;;13.77;;
8151;SDS011;4117;53.622;9.958;2024-03-08T11:08:55;15.77;;;12.20;;
8151;SDS011;4117;53.622;9.958;2024-03-08T11:11:24;20.10;;;12.47;;
8151;SDS011;4117;53.622;9.958;2024-03-08T11:13:55;19.30;;;12.73;;
8151;SDS011;4117;53.622;9.958;2024-03-08T11:16:38;18.37;;;13.27;;
8151;SDS011;4117;53.622;9.958;2024-03-08T11:21:59;19.70;;;13.70;;
8151;SDS011;4117;53.622;9.958;2024-03-08T11:24:26;19.73;;;12.93;;
8151;SDS011;4117;53.622;9.958;2024-03-08T11:26:56;18.30;;;12.97;;
8151;SDS011;4117;53.622;9.958;2024-03-08T11:29:35;18.03;;;12.70;;
8151;SDS011;4117;53.622;9.958;2024-03-08T11:32:07;18.20;;;13.83;;
8151;SDS011;4117;53.622;9.958;2024-03-08T11:34:35;18.73;;;12.63;;
8151;SDS011;4117;53.622;9.958;2024-03-08T11:37:08;66.83;;;15.80;;
8151;SDS011;4117;53.622;9.958;2024-03-08T11:39:38;17.67;;;10.53;;
8151;SDS011;4117;53.622;9.958;2024-03-08T11:42:06;18.47;;;11.77;;
8151;SDS011;4117;53.622;9.958;2024-03-08T11:44:33;16.83;;;12.17;;
8151;SDS011;4117;53.622;9.958;2024-03-08T11:47:01;16.23;;;11.10;;
8151;SDS011;4117;53.622;9.958;2024-03-08T11:49:31;17.00;;;12.83;;
8151;SDS011;4117;53.622;9.958;2024-03-08T11:51:58;16.50;;;12.30;;
8151;SDS011;4117;53.622;9.958;2024-03-08T11:54:26;18.20;;;12.70;;
8151;SDS011;4117;53.622;9.958;2024-03-08T11:56:55;17.30;;;12.23;;
8151;SDS011;4117;53.622;9.958;2024-03-08T11:59:25;17.53;;;11.87;;
8151;SDS011;4117;53.622;9.958;2024-03-08T12:04:41;17.37;;;12.43;;
8151;SDS011;4117;53.622;9.958;2024-03-08T12:07:11;20.10;;;11.73;;
8151;SDS011;4117;53.622;9.958;2024-03-08T12:09:41;17.47;;;11.43;;
8151;SDS011;4117;53.622;9.958;2024-03-08T12:12:11;16.33;;;12.47;;
8151;SDS011;4117;53.622;9.958;2024-03-08T12:14:38;16.57;;;11.97;;
8151;SDS011;4117;53.622;9.958;2024-03-08T12:17:09;104.10;;;18.33;;
8151;SDS011;4117;53.622;9.958;2024-03-08T12:19:36;17.23;;;12.43;;
8151;SDS011;4117;53.622;9.958;2024-03-08T12:22:07;18.33;;;11.73;;
8151;SDS011;4117;53.622;9.958;2024-03-08T12:24:38;17.50;;;11.40;;
8151;SDS011;4117;53.622;9.958;2024-03-08T12:27:18;15.20;;;11.70;;
8151;SDS011;4117;53.622;9.958;2024-03-08T12:29:45;17.13;;;11.77;;
8151;SDS011;4117;53.622;9.958;2024-03-08T12:32:13;17.00;;;11.67;;
8151;SDS011;4117;53.622;9.958;2024-03-08T12:34:40;15.47;;;11.13;;
8151;SDS011;4117;53.622;9.958;2024-03-08T12:37:09;16.10;;;11.90;;
8151;SDS011;4117;53.622;9.958;2024-03-08T12:39:40;17.67;;;11.27;;
8151;SDS011;4117;53.622;9.958;2024-03-08T12:42:07;17.27;;;12.43;;
8151;SDS011;4117;53.622;9.958;2024-03-08T12:44:35;17.70;;;12.40;;
8151;SDS011;4117;53.622;9.958;2024-03-08T12:47:08;17.87;;;11.90;;
8151;SDS011;4117;53.622;9.958;2024-03-08T12:49:35;20.73;;;13.00;;
8151;SDS011;4117;53.622;9.958;2024-03-08T12:52:02;19.17;;;12.30;;
8151;SDS011;4117;53.622;9.958;2024-03-08T12:54:29;15.30;;;11.60;;
8151;SDS011;4117;53.622;9.958;2024-03-08T12:56:56;16.90;;;12.23;;
8151;SDS011;4117;53.622;9.958;2024-03-08T12:59:23;17.07;;;11.40;;
8151;SDS011;4117;53.622;9.958;2024-03-08T13:01:52;15.93;;;11.60;;
8151;SDS011;4117;53.622;9.958;2024-03-08T13:04:21;83.50;;;17.07;;
8151;SDS011;4117;53.622;9.958;2024-03-08T13:06:48;17.70;;;11.20;;
8151;SDS011;4117;53.622;9.958;2024-03-08T13:09:15;18.30;;;12.70;;
8151;SDS011;4117;53.622;9.958;2024-03-08T13:11:45;18.30;;;11.27;;
8151;SDS011;4117;53.622;9.958;2024-03-08T13:14:11;15.13;;;11.30;;
8151;SDS011;4117;53.622;9.958;2024-03-08T13:16:38;16.33;;;11.37;;
8151;SDS011;4117;53.622;9.958;2024-03-08T13:19:07;25.60;;;18.00;;
8151;SDS011;4117;53.622;9.958;2024-03-08T13:21:34;16.13;;;12.23;;
8151;SDS011;4117;53.622;9.958;2024-03-08T13:24:01;15.20;;;10.10;;
8151;SDS011;4117;53.622;9.958;2024-03-08T13:26:28;15.73;;;11.30;;
8151;SDS011;4117;53.622;9.958;2024-03-08T13:28:57;15.00;;;10.93;;
8151;SDS011;4117;53.622;9.958;2024-03-08T13:31:25;16.93;;;12.43;;
8151;SDS011;4117;53.622;9.958;2024-03-08T13:33:52;15.47;;;11.53;;
8151;SDS011;4117;53.622;9.958;2024-03-08T13:36:24;15.33;;;11.10;;
8151;SDS011;4117;53.622;9.958;2024-03-08T13:38:54;14.87;;;10.67;;
8151;SDS011;4117;53.622;9.958;2024-03-08T13:41:24;17.07;;;10.50;;
8151;SDS011;4117;53.622;9.958;2024-03-08T13:43:51;14.07;;;10.40;;
8151;SDS011;4117;53.622;9.958;2024-03-08T13:46:20;15.43;;;9.73;;
8151;SDS011;4117;53.622;9.958;2024-03-08T13:48:47;13.03;;;9.97;;
8151;SDS011;4117;53.622;9.958;2024-03-08T13:51:15;13.33;;;9.90;;
8151;SDS011;4117;53.622;9.958;2024-03-08T13:53:44;14.93;;;10.63;;
8151;SDS011;4117;53.622;9.958;2024-03-08T13:56:11;12.10;;;8.87;;
8151;SDS011;4117;53.622;9.958;2024-03-08T13:58:40;13.00;;;9.00;;
8151;SDS011;4117;53.622;9.958;2024-03-08T14:01:09;13.57;;;9.50;;
8151;SDS011;4117;53.622;9.958;2024-03-08T14:03:36;14.83;;;9.50;;
8151;SDS011;4117;53.622;9.958;2024-03-08T14:06:06;14.70;;;10.30;;
8151;SDS011;4117;53.622;9.958;2024-03-08T14:08:34;12.30;;;8.97;;
8151;SDS011;4117;53.622;9.958;2024-03-08T14:11:04;13.13;;;10.03;;
8151;SDS011;4117;53.622;9.958;2024-03-08T14:13:40;20.47;;;15.97;;
8151;SDS011;4117;53.622;9.958;2024-03-08T14:16:10;18.00;;;12.30;;
8151;SDS011;4117;53.622;9.958;2024-03-08T14:18:37;15.70;;;9.80;;
8151;SDS011;4117;53.622;9.958;2024-03-08T14:21:04;13.37;;;9.80;;
8151;SDS011;4117;53.622;9.958;2024-03-08T14:23:33;13.23;;;8.73;;
8151;SDS011;4117;53.622;9.958;2024-03-08T14:26:01;10.83;;;8.13;;
8151;SDS011;4117;53.622;9.958;2024-03-08T14:28:29;14.13;;;10.43;;
8151;SDS011;4117;53.622;9.958;2024-03-08T14:30:57;13.40;;;10.07;;
8151;SDS011;4117;53.622;9.958;2024-03-08T14:33:27;14.83;;;10.43;;
8151;SDS011;4117;53.622;9.958;2024-03-08T14:35:55;14.33;;;9.93;;
8151;SDS011;4117;53.622;9.958;2024-03-08T14:38:22;14.43;;;10.57;;
8151;SDS011;4117;53.622;9.958;2024-03-08T14:40:52;14.77;;;9.60;;
8151;SDS011;4117;53.622;9.958;2024-03-08T14:43:20;14.07;;;10.90;;
8151;SDS011;4117;53.622;9.958;2024-03-08T14:45:49;15.73;;;11.60;;
8151;SDS011;4117;53.622;9.958;2024-03-08T14:48:17;15.20;;;10.80;;
8151;SDS011;4117;53.622;9.958;2024-03-08T14:50:44;14.67;;;10.37;;
8151;SDS011;4117;53.622;9.958;2024-03-08T14:53:12;16.00;;;10.60;;
8151;SDS011;4117;53.622;9.958;2024-03-08T14:55:40;14.70;;;11.10;;
8151;SDS011;4117;53.622;9.958;2024-03-08T14:58:09;14.50;;;11.13;;
8151;SDS011;4117;53.622;9.958;2024-03-08T15:00:36;15.00;;;11.03;;